createdAt,value
2022-12-23T00:01:05.080Z,39.92
2022-12-23T00:03:33.578Z,39.40
2022-12-23T00:06:01.445Z,39.83
2022-12-23T00:08:28.907Z,36.33
2022-12-23T00:10:57.943Z,36.28
2022-12-23T00:13:44.379Z,32.93
2022-12-23T00:16:13.906Z,34.03
2022-12-23T00:18:43.459Z,39.30
2022-12-23T00:21:13.776Z,32.92
2022-12-23T00:23:44.853Z,30.85
2022-12-23T00:26:18.516Z,29.65
2022-12-23T00:28:48.583Z,30.67
2022-12-23T00:31:18.997Z,28.27
2022-12-23T00:33:48.810Z,37.97
2022-12-23T00:36:27.873Z,30.85
2022-12-23T00:39:17.558Z,29.88
2022-12-23T00:42:04.040Z,27.35
2022-12-23T00:44:31.696Z,27.08
2022-12-23T00:46:59.060Z,28.63
2022-12-23T00:49:44.764Z,28.13
2022-12-23T00:52:16.114Z,30.05
2022-12-23T00:54:43.538Z,26.55
2022-12-23T00:57:11.864Z,26.75
2022-12-23T00:59:39.270Z,29.20
2022-12-23T01:02:24.988Z,27.15
2022-12-23T01:05:27.621Z,22.67
2022-12-23T01:07:56.131Z,18.00
2022-12-23T01:10:23.489Z,21.00
2022-12-23T01:12:50.899Z,21.33
2022-12-23T01:15:18.256Z,17.13
2022-12-23T01:17:45.578Z,20.98
2022-12-23T01:20:13.366Z,18.73
2022-12-23T01:22:40.667Z,15.27
2022-12-23T01:25:08.764Z,18.10
2022-12-23T01:27:36.281Z,18.45
2022-12-23T01:30:04.617Z,15.82
2022-12-23T01:32:34.111Z,17.90
2022-12-23T01:35:02.497Z,14.43
2022-12-23T01:37:29.872Z,13.80
2022-12-23T01:39:57.231Z,14.15
2022-12-23T01:42:43.262Z,14.32
2022-12-23T01:45:25.346Z,13.48
2022-12-23T01:47:59.279Z,12.80
2022-12-23T01:50:49.484Z,16.17
2022-12-23T01:53:26.474Z,14.13
2022-12-23T01:56:15.819Z,14.63
2022-12-23T01:58:51.324Z,13.55
2022-12-23T02:01:37.969Z,14.93
2022-12-23T02:04:08.559Z,13.30
2022-12-23T02:07:00.318Z,13.52
2022-12-23T02:09:40.670Z,18.37
2022-12-23T02:12:22.245Z,19.60
2022-12-23T02:15:26.234Z,18.92
2022-12-23T02:18:26.143Z,20.75
2022-12-23T02:21:18.638Z,18.48
2022-12-23T02:24:10.225Z,21.35
2022-12-23T02:26:37.544Z,16.35
2022-12-23T02:29:29.076Z,19.05
2022-12-23T02:31:59.445Z,20.50
2022-12-23T02:34:54.853Z,20.17
2022-12-23T02:37:45.232Z,20.05
2022-12-23T02:40:34.766Z,26.08
2022-12-23T02:43:35.259Z,22.55
2022-12-23T02:46:12.130Z,21.45
2022-12-23T02:48:58.113Z,22.05
2022-12-23T02:51:32.280Z,20.45
2022-12-23T02:54:03.730Z,20.15
2022-12-23T02:56:33.438Z,20.27
2022-12-23T02:59:06.905Z,20.60
2022-12-23T03:01:35.185Z,20.85
2022-12-23T03:04:03.004Z,19.15
2022-12-23T03:06:36.322Z,19.27
2022-12-23T03:09:04.678Z,17.60
2022-12-23T03:11:43.814Z,21.05
2022-12-23T03:14:36.563Z,17.38
2022-12-23T03:17:26.112Z,19.80
2022-12-23T03:20:22.170Z,17.85
2022-12-23T03:22:59.501Z,18.17
2022-12-23T03:25:41.049Z,20.58
2022-12-23T03:28:20.220Z,18.95
2022-12-23T03:30:52.880Z,20.27
2022-12-23T03:33:26.360Z,20.63
2022-12-23T03:35:59.898Z,21.75
2022-12-23T03:38:28.595Z,20.02
2022-12-23T03:41:01.105Z,22.63
2022-12-23T03:43:33.982Z,26.33
2022-12-23T03:46:12.014Z,21.42
2022-12-23T03:49:00.023Z,26.52
2022-12-23T03:51:33.664Z,23.88
2022-12-23T03:54:07.051Z,23.02
2022-12-23T03:56:45.229Z,25.42
2022-12-23T03:59:18.764Z,27.85
2022-12-23T04:01:57.864Z,23.67
2022-12-23T04:04:33.234Z,26.55
2022-12-23T04:07:06.804Z,24.95
2022-12-23T04:09:36.794Z,27.05
2022-12-23T04:12:04.908Z,23.73
2022-12-23T04:14:35.390Z,26.42
2022-12-23T04:17:03.057Z,25.80
2022-12-23T04:19:30.653Z,23.73
2022-12-23T04:21:58.207Z,26.08
2022-12-23T04:24:25.968Z,23.27
2022-12-23T04:26:53.326Z,22.92
2022-12-23T04:29:20.687Z,25.85
2022-12-23T04:31:48.170Z,26.55
2022-12-23T04:34:15.708Z,24.33
2022-12-23T04:36:43.139Z,22.20
2022-12-23T04:39:10.527Z,21.63
2022-12-23T04:41:37.941Z,23.20
2022-12-23T04:44:06.006Z,24.98
2022-12-23T04:46:33.491Z,23.67
2022-12-23T04:49:00.880Z,22.20
2022-12-23T04:51:28.267Z,22.48
2022-12-23T04:53:55.663Z,23.60
2022-12-23T04:56:23.465Z,24.60
2022-12-23T04:58:51.224Z,22.40
2022-12-23T05:01:18.779Z,29.75
2022-12-23T05:03:47.151Z,25.92
2022-12-23T05:06:14.528Z,24.30
2022-12-23T05:08:41.846Z,26.95
2022-12-23T05:11:09.218Z,25.23
2022-12-23T05:13:36.610Z,24.92
2022-12-23T05:16:04.265Z,22.58
2022-12-23T05:18:32.128Z,25.85
2022-12-23T05:20:59.619Z,24.83
2022-12-23T05:23:26.999Z,25.85
2022-12-23T05:25:54.841Z,20.77
2022-12-23T05:28:23.539Z,23.88
2022-12-23T05:30:58.530Z,25.45
2022-12-23T05:33:26.600Z,21.48
2022-12-23T05:35:54.005Z,23.27
2022-12-23T05:38:21.810Z,24.35
2022-12-23T05:40:49.374Z,22.65
2022-12-23T05:43:17.154Z,24.30
2022-12-23T05:45:44.868Z,24.67
2022-12-23T05:48:12.559Z,20.63
2022-12-23T05:50:40.688Z,21.30
2022-12-23T05:53:08.749Z,22.25
2022-12-23T05:55:36.573Z,27.23
2022-12-23T05:58:04.066Z,28.85
2022-12-23T06:00:31.771Z,38.00
2022-12-23T06:02:59.725Z,31.83
2022-12-23T06:05:27.513Z,28.67
2022-12-23T06:07:55.380Z,29.45
2022-12-23T06:10:22.784Z,29.23
2022-12-23T06:12:50.257Z,32.63
2022-12-23T06:15:17.709Z,31.98
2022-12-23T06:17:45.214Z,32.47
2022-12-23T06:20:19.947Z,26.98
2022-12-23T06:22:48.382Z,29.35
2022-12-23T06:25:15.819Z,23.40
2022-12-23T06:27:43.640Z,29.38
2022-12-23T06:30:11.533Z,21.40
2022-12-23T06:32:39.389Z,23.88
2022-12-23T06:35:08.901Z,30.80
2022-12-23T06:37:36.597Z,21.90
2022-12-23T06:40:04.694Z,21.77
2022-12-23T06:42:32.512Z,23.08
2022-12-23T06:45:00.006Z,22.05
2022-12-23T06:47:27.364Z,24.42
2022-12-23T06:49:55.563Z,20.90
2022-12-23T06:52:23.322Z,23.70
2022-12-23T06:54:50.920Z,22.77
2022-12-23T06:57:18.581Z,27.33
2022-12-23T06:59:46.150Z,28.13
2022-12-23T07:02:13.705Z,27.45
2022-12-23T07:04:41.933Z,30.05
2022-12-23T07:07:09.605Z,30.05
2022-12-23T07:09:37.172Z,77.60
2022-12-23T07:12:05.174Z,121.03
2022-12-23T07:14:32.871Z,56.45
2022-12-23T07:17:00.489Z,40.23
2022-12-23T07:19:27.941Z,25.15
2022-12-23T07:21:55.368Z,28.40
2022-12-23T07:24:22.741Z,28.90
2022-12-23T07:26:51.199Z,26.02
2022-12-23T07:29:18.584Z,26.37
2022-12-23T07:31:45.999Z,27.75
2022-12-23T07:34:13.575Z,27.05
2022-12-23T07:36:40.949Z,29.30
2022-12-23T07:39:08.429Z,27.73
2022-12-23T07:41:35.962Z,26.40
2022-12-23T07:44:07.929Z,30.67
2022-12-23T07:46:35.825Z,28.30
2022-12-23T07:49:03.907Z,28.15
2022-12-23T07:51:32.158Z,25.48
2022-12-23T07:53:59.625Z,25.73
2022-12-23T07:56:27.126Z,23.35
2022-12-23T07:58:55.085Z,28.30
2022-12-23T08:01:23.532Z,27.60
2022-12-23T08:03:51.470Z,24.13
2022-12-23T08:06:20.106Z,21.83
2022-12-23T08:08:47.795Z,28.10
2022-12-23T08:11:16.473Z,23.48
2022-12-23T08:13:45.687Z,25.55
2022-12-23T08:16:13.435Z,22.60
2022-12-23T08:18:42.368Z,22.07
2022-12-23T08:21:16.081Z,22.73
2022-12-23T08:23:43.979Z,22.80
2022-12-23T08:26:29.545Z,22.88
2022-12-23T08:28:57.007Z,22.42
2022-12-23T08:31:32.128Z,22.33
2022-12-23T08:34:00.906Z,25.05
2022-12-23T08:36:32.015Z,21.55
2022-12-23T08:39:02.341Z,22.60
2022-12-23T08:41:32.493Z,23.95
2022-12-23T08:44:00.347Z,23.83
2022-12-23T08:46:28.503Z,23.17
2022-12-23T08:48:56.584Z,22.58
2022-12-23T08:51:26.231Z,20.77
2022-12-23T08:54:00.896Z,22.48
2022-12-23T08:56:35.437Z,24.80
2022-12-23T08:59:03.642Z,22.48
2022-12-23T09:01:34.007Z,26.10
2022-12-23T09:04:06.604Z,23.38
2022-12-23T09:06:37.364Z,24.92
2022-12-23T09:09:05.675Z,25.43
2022-12-23T09:11:33.993Z,25.60
2022-12-23T09:14:01.886Z,28.40
2022-12-23T09:16:30.158Z,24.63
2022-12-23T09:18:57.844Z,27.65
2022-12-23T09:21:25.428Z,24.93
2022-12-23T09:23:53.089Z,26.88
2022-12-23T09:26:26.835Z,27.02
2022-12-23T09:28:55.243Z,25.52
2022-12-23T09:31:26.887Z,29.35
2022-12-23T09:33:58.272Z,30.40
2022-12-23T09:36:26.627Z,36.47
2022-12-23T09:38:55.793Z,33.38
2022-12-23T09:41:38.795Z,54.53
2022-12-23T09:44:24.457Z,32.75
2022-12-23T09:46:57.207Z,35.10
2022-12-23T09:49:24.849Z,37.50
2022-12-23T09:51:57.512Z,36.03
2022-12-23T09:54:32.742Z,38.38
2022-12-23T09:57:15.836Z,40.78
2022-12-23T09:59:46.451Z,32.73
2022-12-23T10:02:32.187Z,36.70
2022-12-23T10:05:47.070Z,36.78
2022-12-23T10:08:29.436Z,40.35
2022-12-23T10:11:02.866Z,37.15
2022-12-23T10:13:41.803Z,38.93
2022-12-23T10:16:18.531Z,38.65
2022-12-23T10:18:55.920Z,50.70
2022-12-23T10:21:45.373Z,38.65
2022-12-23T10:24:24.994Z,39.97
2022-12-23T10:26:53.706Z,41.70
2022-12-23T10:29:26.331Z,42.10
2022-12-23T10:32:01.909Z,41.80
2022-12-23T10:35:22.907Z,40.63
2022-12-23T10:38:00.449Z,37.95
2022-12-23T10:40:56.091Z,41.37
2022-12-23T10:43:49.884Z,42.53
2022-12-23T10:46:39.335Z,42.75
2022-12-23T10:49:20.614Z,38.53
2022-12-23T10:51:50.119Z,36.08
2022-12-23T10:54:27.427Z,40.73
2022-12-23T10:56:55.498Z,37.17
2022-12-23T10:59:27.337Z,34.55
2022-12-23T11:02:13.549Z,37.47
2022-12-23T11:04:46.545Z,35.53
2022-12-23T11:10:21.491Z,39.40
2022-12-23T11:12:51.649Z,34.05
2022-12-23T11:15:32.864Z,32.03
2022-12-23T11:18:17.673Z,32.05
2022-12-23T11:21:01.968Z,32.43
2022-12-23T11:23:33.500Z,31.75
2022-12-23T11:26:05.328Z,33.95
2022-12-23T11:28:35.164Z,31.08
2022-12-23T11:31:14.735Z,35.40
2022-12-23T11:33:52.503Z,32.00
2022-12-23T11:36:24.285Z,29.33
2022-12-23T11:39:28.695Z,32.10
2022-12-23T11:42:06.312Z,35.10
2022-12-23T11:44:40.632Z,30.48
2022-12-23T11:47:23.550Z,34.73
2022-12-23T11:49:56.472Z,33.97
2022-12-23T11:52:26.154Z,30.60
2022-12-23T11:54:57.213Z,33.42
2022-12-23T11:57:48.951Z,31.48
2022-12-23T12:00:26.178Z,33.77
2022-12-23T12:02:57.083Z,31.58
2022-12-23T12:05:41.432Z,26.42
2022-12-23T12:08:15.689Z,26.75
2022-12-23T12:10:43.953Z,24.38
2022-12-23T12:13:31.051Z,21.90
2022-12-23T12:16:13.864Z,27.75
2022-12-23T12:18:44.072Z,24.73
2022-12-23T12:21:16.542Z,26.70
2022-12-23T12:24:08.414Z,24.63
2022-12-23T12:26:39.033Z,29.43
2022-12-23T12:29:28.793Z,24.15
2022-12-23T12:31:59.989Z,26.55
2022-12-23T12:34:51.883Z,26.25
2022-12-23T12:37:28.073Z,25.55
2022-12-23T12:40:01.560Z,30.50
2022-12-23T12:42:43.195Z,26.63
2022-12-23T12:45:48.422Z,29.98
2022-12-23T12:48:18.807Z,28.10
2022-12-23T12:51:28.107Z,24.92
2022-12-23T12:54:05.662Z,24.27
2022-12-23T12:56:53.277Z,25.60
2022-12-23T12:59:26.019Z,27.63
2022-12-23T13:02:18.508Z,27.50
2022-12-23T13:05:13.211Z,29.52
2022-12-23T13:09:24.544Z,25.05
2022-12-23T13:12:10.412Z,25.17
2022-12-23T13:15:04.796Z,31.30
2022-12-23T13:17:52.380Z,47.80
2022-12-23T13:20:33.281Z,46.47
2022-12-23T13:23:41.828Z,42.15
2022-12-23T13:26:10.666Z,43.80
2022-12-23T13:29:04.864Z,39.80
2022-12-23T13:31:32.589Z,38.97
2022-12-23T13:34:37.469Z,40.42
2022-12-23T13:37:39.814Z,39.15
2022-12-23T13:40:25.811Z,36.65
2022-12-23T13:42:57.868Z,33.43
2022-12-23T13:45:33.378Z,41.28
2022-12-23T13:48:22.477Z,33.63
2022-12-23T13:51:13.410Z,35.55
2022-12-23T13:54:13.108Z,31.17
2022-12-23T13:56:48.760Z,33.07
2022-12-23T13:59:16.995Z,33.03
2022-12-23T14:01:49.959Z,34.13
2022-12-23T14:04:38.110Z,31.35
2022-12-23T14:07:27.425Z,31.83
2022-12-23T14:10:09.316Z,29.33
2022-12-23T14:12:39.993Z,33.58
2022-12-23T14:15:22.982Z,33.17
2022-12-23T14:17:50.652Z,37.60
2022-12-23T14:20:39.428Z,39.58
2022-12-23T14:23:18.403Z,29.90
2022-12-23T14:26:21.216Z,25.42
2022-12-23T14:28:58.079Z,27.98
2022-12-23T14:31:42.798Z,29.48
2022-12-23T14:34:19.575Z,32.85
2022-12-23T14:37:24.628Z,28.93
2022-12-23T14:39:52.823Z,37.90
2022-12-23T14:42:40.832Z,44.08
2022-12-23T14:45:35.808Z,36.55
2022-12-23T14:48:34.978Z,32.63
2022-12-23T14:51:09.162Z,31.13
2022-12-23T14:53:57.409Z,29.10
2022-12-23T14:56:43.537Z,32.90
2022-12-23T14:59:10.798Z,31.50
2022-12-23T15:01:55.992Z,30.60
2022-12-23T15:04:28.056Z,34.77
2022-12-23T15:07:21.278Z,31.92
2022-12-23T15:10:00.331Z,30.75
2022-12-23T15:12:33.839Z,36.58
2022-12-23T15:15:16.635Z,29.05
2022-12-23T15:17:43.995Z,31.90
2022-12-23T15:20:11.415Z,34.08
2022-12-23T15:22:40.470Z,41.95
2022-12-23T15:25:28.003Z,52.33
2022-12-23T15:28:01.460Z,44.88
2022-12-23T15:30:46.520Z,41.65
2022-12-23T15:33:51.784Z,45.00
2022-12-23T15:36:07.569Z,42.88
2022-12-23T15:38:38.045Z,40.22
2022-12-23T15:41:14.203Z,45.97
2022-12-23T15:43:42.878Z,38.80
2022-12-23T15:46:17.103Z,40.50
2022-12-23T15:48:45.527Z,42.15
2022-12-23T15:51:57.882Z,43.30
2022-12-23T15:54:38.230Z,31.50
2022-12-23T15:57:06.295Z,28.88
2022-12-23T15:59:38.648Z,29.02
2022-12-23T16:02:58.910Z,30.83
2022-12-23T16:05:13.048Z,29.88
2022-12-23T16:07:42.278Z,39.65
2022-12-23T16:10:16.383Z,52.22
2022-12-23T16:12:44.533Z,63.90
2022-12-23T16:15:27.615Z,70.78
2022-12-23T16:18:20.190Z,71.80
2022-12-23T16:20:58.493Z,63.50
2022-12-23T16:23:30.817Z,50.28
2022-12-23T16:26:00.652Z,48.42
2022-12-23T16:28:39.752Z,53.50
2022-12-23T16:31:08.344Z,42.75
2022-12-23T16:33:39.990Z,41.10
2022-12-23T16:36:34.447Z,55.25
2022-12-23T16:39:07.794Z,48.70
2022-12-23T16:41:35.834Z,47.25
2022-12-23T16:44:03.836Z,44.40
2022-12-23T16:46:39.065Z,41.58
2022-12-23T16:49:11.771Z,40.58
2022-12-23T16:51:40.845Z,48.50
2022-12-23T16:54:17.869Z,56.85
2022-12-23T16:56:47.146Z,51.88
2022-12-23T16:59:15.126Z,56.85
2022-12-23T17:01:47.020Z,75.30
2022-12-23T17:04:15.484Z,76.70
2022-12-23T17:06:42.957Z,76.45
2022-12-23T17:09:12.546Z,53.78
2022-12-23T17:11:47.231Z,40.92
2022-12-23T17:14:20.770Z,28.88
2022-12-23T17:16:49.053Z,32.15
2022-12-23T17:19:23.337Z,27.33
2022-12-23T17:22:02.504Z,34.75
2022-12-23T17:24:29.926Z,39.65
2022-12-23T17:26:57.591Z,38.78
2022-12-23T17:29:25.275Z,40.80
2022-12-23T17:31:53.256Z,39.50
2022-12-23T17:34:23.430Z,40.00
2022-12-23T17:36:51.567Z,38.60
2022-12-23T17:39:20.640Z,44.90
2022-12-23T17:41:48.837Z,35.90
2022-12-23T17:44:17.684Z,36.05
2022-12-23T17:46:46.599Z,47.15
2022-12-23T17:49:14.484Z,38.47
2022-12-23T17:51:43.242Z,43.53
2022-12-23T17:54:24.838Z,47.80
2022-12-23T17:56:54.065Z,79.55
2022-12-23T17:59:21.837Z,99.10
2022-12-23T18:01:49.629Z,61.75
2022-12-23T18:04:17.051Z,65.45
2022-12-23T18:06:44.408Z,50.83
2022-12-23T18:09:13.437Z,48.40
2022-12-23T18:11:44.371Z,40.67
2022-12-23T18:14:32.302Z,38.95
2022-12-23T18:17:00.379Z,44.85
2022-12-23T18:19:29.683Z,51.92
2022-12-23T18:21:57.877Z,46.60
2022-12-23T18:24:25.516Z,47.00
2022-12-23T18:26:53.207Z,43.05
2022-12-23T18:29:20.718Z,40.25
2022-12-23T18:31:52.251Z,41.45
2022-12-23T18:34:20.721Z,39.88
2022-12-23T18:36:48.990Z,29.65
2022-12-23T18:39:17.107Z,33.60
2022-12-23T18:41:44.470Z,37.13
2022-12-23T18:44:21.600Z,49.78
2022-12-23T18:46:50.501Z,51.65
2022-12-23T18:49:18.067Z,34.45
2022-12-23T18:51:46.447Z,37.03
2022-12-23T18:54:17.523Z,36.70
2022-12-23T18:56:45.277Z,43.38
2022-12-23T18:59:29.529Z,33.80
2022-12-23T19:01:58.268Z,31.90
2022-12-23T19:04:27.089Z,32.03
2022-12-23T19:06:56.449Z,39.75
2022-12-23T19:09:27.513Z,74.45
2022-12-23T19:11:55.937Z,37.75
2022-12-23T19:14:23.655Z,38.10
2022-12-23T19:16:52.617Z,34.03
2022-12-23T19:19:21.453Z,36.35
2022-12-23T19:21:48.815Z,43.13
2022-12-23T19:24:16.789Z,38.03
2022-12-23T19:26:44.303Z,35.70
2022-12-23T19:29:11.724Z,32.05
2022-12-23T19:31:42.286Z,33.17
2022-12-23T19:34:15.031Z,34.95
2022-12-23T19:36:43.334Z,36.33
2022-12-23T19:39:16.895Z,36.10
2022-12-23T19:41:45.323Z,39.85
2022-12-23T19:44:13.136Z,34.20
2022-12-23T19:46:41.020Z,38.13
2022-12-23T19:49:09.942Z,41.38
2022-12-23T19:51:39.126Z,40.05
2022-12-23T19:54:06.531Z,31.88
2022-12-23T19:56:35.627Z,37.85
2022-12-23T19:59:03.186Z,59.17
2022-12-23T20:01:30.756Z,48.42
2022-12-23T20:03:58.292Z,49.92
2022-12-23T20:06:29.901Z,43.95
2022-12-23T20:09:00.964Z,41.17
2022-12-23T20:11:30.917Z,37.35
2022-12-23T20:13:59.860Z,32.30
2022-12-23T20:16:29.519Z,30.85
2022-12-23T20:18:58.021Z,36.53
2022-12-23T20:21:25.779Z,31.88
2022-12-23T20:23:53.338Z,35.97
2022-12-23T20:26:21.746Z,34.22
2022-12-23T20:28:49.325Z,31.25
2022-12-23T20:31:21.100Z,32.22
2022-12-23T20:33:50.236Z,35.72
2022-12-23T20:36:21.090Z,30.08
2022-12-23T20:38:49.123Z,47.42
2022-12-23T20:41:18.937Z,46.80
2022-12-23T20:44:02.741Z,36.20
2022-12-23T20:46:34.610Z,33.08
2022-12-23T20:49:02.099Z,36.78
2022-12-23T20:51:29.851Z,39.95
2022-12-23T20:54:01.545Z,41.40
2022-12-23T20:56:30.629Z,40.55
2022-12-23T20:58:59.626Z,54.53
2022-12-23T21:01:31.482Z,44.53
2022-12-23T21:04:00.984Z,32.53
2022-12-23T21:06:30.785Z,37.78
2022-12-23T21:09:00.127Z,36.65
2022-12-23T21:11:33.165Z,34.42
2022-12-23T21:14:06.762Z,28.60
2022-12-23T21:16:36.798Z,27.50
2022-12-23T21:19:05.764Z,24.98
2022-12-23T21:21:33.691Z,25.38
2022-12-23T21:24:04.908Z,25.48
2022-12-23T21:26:35.292Z,23.75
2022-12-23T21:29:07.808Z,26.45
2022-12-23T21:31:37.727Z,27.30
2022-12-23T21:34:06.356Z,29.48
2022-12-23T21:36:37.050Z,26.05
2022-12-23T21:39:06.134Z,25.88
2022-12-23T21:41:39.271Z,25.80
2022-12-23T21:44:07.087Z,24.30
2022-12-23T21:46:34.900Z,22.90
2022-12-23T21:49:02.436Z,25.90
2022-12-23T21:51:39.519Z,23.95
2022-12-23T21:54:11.871Z,23.50
2022-12-23T21:56:40.968Z,23.10
2022-12-23T21:59:12.354Z,27.45
2022-12-23T22:01:40.440Z,23.00
2022-12-23T22:04:09.875Z,23.75
2022-12-23T22:06:41.370Z,27.55
2022-12-23T22:09:10.539Z,26.15
2022-12-23T22:11:38.641Z,26.27
2022-12-23T22:14:09.018Z,23.30
2022-12-23T22:16:36.951Z,22.77
2022-12-23T22:19:05.872Z,28.33
2022-12-23T22:21:34.936Z,23.95
2022-12-23T22:24:03.517Z,27.02
2022-12-23T22:26:33.253Z,22.60
2022-12-23T22:29:04.552Z,22.98
2022-12-23T22:31:40.194Z,23.73
2022-12-23T22:34:09.051Z,24.15
2022-12-23T22:36:36.712Z,24.27
2022-12-23T22:39:04.406Z,25.75
2022-12-23T22:41:31.870Z,30.85
2022-12-23T22:43:59.957Z,27.88
2022-12-23T22:46:28.245Z,27.65
2022-12-23T22:48:56.729Z,26.92
2022-12-23T22:51:26.958Z,30.30
2022-12-23T22:53:55.418Z,27.90
2022-12-23T22:56:23.911Z,28.27
2022-12-23T22:58:53.411Z,23.75
2022-12-23T23:01:31.952Z,32.58
2022-12-23T23:04:02.094Z,29.75
2022-12-23T23:06:38.808Z,28.77
2022-12-23T23:09:08.111Z,28.65
2022-12-23T23:11:35.953Z,29.90
2022-12-23T23:14:04.140Z,30.25
2022-12-23T23:16:32.046Z,34.47
2022-12-23T23:19:00.229Z,29.65
2022-12-23T23:21:27.958Z,30.33
2022-12-23T23:23:55.416Z,29.30
2022-12-23T23:26:27.185Z,31.73
2022-12-23T23:28:55.661Z,33.72
2022-12-23T23:34:12.248Z,34.60
2022-12-23T23:36:40.430Z,37.20
2022-12-23T23:39:08.669Z,35.40
2022-12-23T23:41:36.248Z,39.35
2022-12-23T23:44:04.026Z,36.40
2022-12-23T23:46:32.392Z,37.22
2022-12-23T23:48:59.942Z,33.92
2022-12-23T23:51:27.557Z,32.63
2022-12-23T23:53:54.882Z,31.38
2022-12-23T23:56:25.858Z,28.98
2022-12-23T23:58:54.562Z,25.33
